Time;durP1;ratioP1;P1;durP2;ratioP2;P2;SDS_P1;SDS_P2;PMS_P1;PMS_P2;Temp;Humidity;BMP_temperature;BMP_pressure;BME280_temperature;BME280_humidity;BME280_pressure;Samples;Min_cycle;Max_cycle;Signal;HPM_P1;HPM_P2
2022/03/29 00:02:00;;;;;;;29.50;14.57;;;;;;;8.18;77.67;101630.63;5108734;28;20070;-75
2022/03/29 00:04:25;;;;;;;26.65;14.57;;;;;;;8.11;77.98;101621.97;5110919;28;20028;-74
2022/03/29 00:06:53;;;;;;;29.05;13.13;;;;;;;8.10;78.01;101630.59;5109498;28;20039;-75
2022/03/29 00:09:19;;;;;;;26.85;13.68;;;;;;;8.09;78.48;101631.47;5092491;28;20039;-75
2022/03/29 00:11:45;;;;;;;31.10;14.52;;;;;;;8.03;78.64;101630.63;5108766;28;20027;-75
2022/03/29 00:14:12;;;;;;;30.38;15.50;;;;;;;8.01;78.94;101628.03;5111358;28;20358;-74
2022/03/29 00:16:38;;;;;;;31.17;14.93;;;;;;;7.92;79.63;101628.03;5108189;28;20089;-75
2022/03/29 00:19:04;;;;;;;34.55;15.52;;;;;;;7.90;79.80;101621.97;5093435;28;20038;-74
2022/03/29 00:21:29;;;;;;;29.95;15.73;;;;;;;7.87;80.26;101620.22;5090873;28;20031;-74
2022/03/29 00:23:55;;;;;;;28.60;15.65;;;;;;;7.85;80.24;101615.91;5105498;28;20036;-74
2022/03/29 00:26:20;;;;;;;27.55;14.52;;;;;;;7.89;80.18;101613.31;5097622;28;20061;-75
2022/03/29 00:28:45;;;;;;;32.78;15.63;;;;;;;7.81;80.11;101608.97;5113736;28;20164;-74
2022/03/29 00:31:12;;;;;;;34.83;16.90;;;;;;;7.77;80.85;101610.72;5111196;28;20024;-74
2022/03/29 00:33:38;;;;;;;33.28;16.40;;;;;;;7.71;81.20;101608.97;5098172;28;20084;-74
2022/03/29 00:36:04;;;;;;;29.73;15.35;;;;;;;7.66;81.43;101608.13;5111614;28;20068;-74
2022/03/29 00:38:29;;;;;;;32.53;16.55;;;;;;;7.60;81.40;101599.47;5095026;28;20032;-74
2022/03/29 00:40:54;;;;;;;31.45;16.25;;;;;;;7.54;82.02;101596.84;5096456;28;20027;-74
2022/03/29 00:43:20;;;;;;;33.83;17.10;;;;;;;7.53;82.26;101595.13;5107087;27;20034;-74
2022/03/29 00:45:45;;;;;;;37.50;17.15;;;;;;;7.54;82.38;101596.84;5095279;27;20028;-74
2022/03/29 00:48:12;;;;;;;31.95;16.98;;;;;;;7.46;82.81;101587.34;5103277;28;20036;-74
2022/03/29 00:50:38;;;;;;;32.15;17.35;;;;;;;7.47;83.09;101585.59;5108153;27;20395;-74
2022/03/29 00:53:04;;;;;;;35.13;18.73;;;;;;;7.45;82.73;101582.13;5095546;28;20384;-74
2022/03/29 00:55:30;;;;;;;32.38;18.10;;;;;;;7.37;82.86;101568.31;5100166;28;20032;-74
2022/03/29 00:57:56;;;;;;;30.10;18.20;;;;;;;7.37;82.86;101579.53;5113220;27;20306;-75
2022/03/29 01:00:21;;;;;;;29.27;17.08;;;;;;;7.32;82.88;101567.41;5112592;28;20538;-74
2022/03/29 01:02:47;;;;;;;32.03;16.92;;;;;;;7.28;83.42;101567.41;5103932;28;20016;-74
2022/03/29 01:05:13;;;;;;;31.38;17.92;;;;;;;7.18;83.76;101565.66;5112863;28;20031;-74
2022/03/29 01:07:38;;;;;;;30.80;17.27;;;;;;;7.14;84.02;101561.34;5106622;28;20069;-74
2022/03/29 01:10:06;;;;;;;31.48;17.35;;;;;;;7.14;83.82;101558.75;5107124;28;20097;-74
2022/03/29 01:12:33;;;;;;;32.53;17.63;;;;;;;7.17;84.34;101561.34;5095118;28;20054;-74
2022/03/29 01:15:03;;;;;;;34.00;18.42;;;;;;;7.08;84.41;101563.06;5093374;28;20076;-74
2022/03/29 01:17:41;;;;;;;29.15;17.92;;;;;;;7.08;84.76;101557.88;5098451;28;20049;-74
2022/03/29 01:20:11;;;;;;;38.90;19.25;;;;;;;7.06;85.38;101562.16;5106382;28;20024;-75
2022/03/29 01:22:45;;;;;;;34.03;19.27;;;;;;;7.02;85.65;101558.72;5111374;28;20475;-75
2022/03/29 01:25:25;;;;;;;31.77;18.45;;;;;;;6.97;86.26;101555.25;5094149;28;20485;-74
2022/03/29 01:27:52;;;;;;;35.63;19.63;;;;;;;6.91;86.34;101550.91;5106704;28;20027;-74
2022/03/29 01:30:18;;;;;;;38.75;19.40;;;;;;;6.94;86.23;101553.50;5093768;28;20031;-74
2022/03/29 01:32:47;;;;;;;34.88;19.55;;;;;;;6.97;86.32;101550.06;5100215;28;20091;-74
2022/03/29 01:35:13;;;;;;;36.10;18.88;;;;;;;6.99;85.92;101551.78;5099457;28;20058;-74
2022/03/29 01:37:39;;;;;;;32.22;19.30;;;;;;;6.96;85.94;101549.19;5102929;28;20035;-74
2022/03/29 01:40:13;;;;;;;33.17;18.90;;;;;;;6.88;86.04;101548.31;5104838;28;20020;-74
2022/03/29 01:42:43;;;;;;;32.15;19.33;;;;;;;6.89;86.37;101549.16;5101013;28;20051;-74
2022/03/29 01:45:09;;;;;;;32.35;19.85;;;;;;;6.86;86.43;101543.97;5114370;28;20012;-74
2022/03/29 01:47:35;;;;;;;42.60;19.98;;;;;;;6.82;86.57;101540.50;5099580;28;20123;-74
2022/03/29 01:50:00;;;;;;;36.78;21.13;;;;;;;6.79;86.72;101541.34;5111312;28;20028;-74
2022/03/29 01:52:26;;;;;;;39.65;20.40;;;;;;;6.79;87.31;101532.72;5108190;28;20043;-74
2022/03/29 01:54:51;;;;;;;39.08;21.75;;;;;;;6.83;86.95;101536.19;5093419;28;20016;-74
2022/03/29 01:57:16;;;;;;;35.83;20.45;;;;;;;6.84;87.05;101522.38;5093688;28;20032;-74
2022/03/29 02:02:25;;;;;;;35.35;20.70;;;;;;;6.74;87.82;101519.75;5098133;28;20051;-74
2022/03/29 02:04:51;;;;;;;39.88;21.67;;;;;;;6.80;87.76;101518.91;5108594;28;20023;-74
2022/03/29 02:07:16;;;;;;;40.05;22.33;;;;;;;6.79;88.59;101517.16;5096269;28;20101;-74
2022/03/29 02:09:42;;;;;;;42.95;22.45;;;;;;;6.78;88.98;101511.13;5104473;28;20028;-74
2022/03/29 02:12:08;;;;;;;34.60;21.55;;;;;;;6.79;89.08;101510.25;5097490;28;20084;-74
2022/03/29 02:14:38;;;;;;;41.38;23.13;;;;;;;6.78;89.19;101503.34;5113508;28;20394;-74
2022/03/29 02:17:03;;;;;;;41.20;22.70;;;;;;;6.83;89.06;101503.34;5103779;28;20463;-74
2022/03/29 02:19:29;;;;;;;40.70;23.45;;;;;;;6.82;89.20;101509.41;5106798;28;20114;-74
2022/03/29 02:21:54;;;;;;;41.05;22.63;;;;;;;6.85;88.97;101503.38;5093830;28;20701;-74
2022/03/29 02:24:19;;;;;;;39.17;23.27;;;;;;;6.86;88.97;101498.19;5109207;28;20020;-74
2022/03/29 02:26:44;;;;;;;43.63;22.15;;;;;;;6.79;89.08;101493.84;5109785;28;20027;-74
2022/03/29 02:29:10;;;;;;;40.60;23.98;;;;;;;6.79;89.46;101488.66;5111349;28;20029;-74
2022/03/29 02:31:36;;;;;;;40.22;23.50;;;;;;;6.82;88.99;101487.81;5100394;28;20028;-74
2022/03/29 02:34:02;;;;;;;42.33;24.13;;;;;;;6.79;89.06;101481.75;5107750;28;20063;-74
2022/03/29 02:36:28;;;;;;;40.97;23.58;;;;;;;6.78;89.47;101485.22;5107580;28;20070;-74
2022/03/29 02:38:53;;;;;;;47.63;24.85;;;;;;;6.79;89.78;101473.13;5098033;28;20031;-74
2022/03/29 02:41:19;;;;;;;41.88;24.75;;;;;;;6.80;89.55;101477.44;5102729;28;20031;-74
2022/03/29 02:43:44;;;;;;;50.03;26.38;;;;;;;6.77;89.62;101477.44;5093740;28;20032;-74
2022/03/29 02:46:09;;;;;;;40.40;24.25;;;;;;;6.78;89.76;101469.66;5092567;28;20035;-74
2022/03/29 02:48:34;;;;;;;46.85;24.52;;;;;;;6.77;89.81;101470.53;5105649;28;20047;-74
2022/03/29 02:51:00;;;;;;;48.30;25.30;;;;;;;6.76;90.16;101467.91;5092319;28;20161;-74
2022/03/29 02:53:25;;;;;;;46.35;25.52;;;;;;;6.66;90.23;101445.44;5092243;28;20032;-75
2022/03/29 02:55:50;;;;;;;43.90;25.92;;;;;;;6.71;90.79;101464.47;5092489;28;20539;-74
2022/03/29 02:58:16;;;;;;;45.70;24.67;;;;;;;6.72;90.40;101455.84;5093548;28;20104;-74
2022/03/29 03:00:41;;;;;;;50.55;26.25;;;;;;;6.70;91.04;101450.66;5092290;28;20034;-74
2022/03/29 03:03:07;;;;;;;46.90;25.17;;;;;;;6.72;90.65;101451.50;5105345;28;20024;-74
2022/03/29 03:05:32;;;;;;;46.17;25.80;;;;;;;6.71;90.52;101452.38;5091586;28;20039;-75
2022/03/29 03:07:57;;;;;;;44.42;25.25;;;;;;;6.74;90.62;101449.78;5094900;28;20032;-74
2022/03/29 03:10:25;;;;;;;45.67;25.83;;;;;;;6.72;90.86;101440.28;5110653;28;20023;-74
2022/03/29 03:12:50;;;;;;;46.95;25.83;;;;;;;6.74;90.98;101447.22;5103044;28;20031;-75
2022/03/29 03:15:18;;;;;;;48.28;25.98;;;;;;;6.72;90.75;101448.06;5101478;28;20030;-74
2022/03/29 03:17:44;;;;;;;47.97;27.08;;;;;;;6.65;91.22;101442.00;5100089;28;20069;-75
2022/03/29 03:20:11;;;;;;;48.42;26.27;;;;;;;6.64;91.54;101441.97;5092399;28;20027;-74
2022/03/29 03:22:37;;;;;;;48.70;26.33;;;;;;;6.67;91.51;101441.97;5110159;28;20059;-74
2022/03/29 03:25:03;;;;;;;52.05;27.02;;;;;;;6.66;91.44;101430.75;5108837;28;20020;-74
2022/03/29 03:27:29;;;;;;;50.83;27.42;;;;;;;6.69;91.37;101430.78;5091871;28;20020;-74
2022/03/29 03:29:54;;;;;;;50.10;27.42;;;;;;;6.61;91.43;101419.53;5093092;28;20458;-74
2022/03/29 03:32:19;;;;;;;52.15;29.33;;;;;;;6.63;91.69;101424.72;5105152;28;20120;-74
2022/03/29 03:34:45;;;;;;;52.70;28.65;;;;;;;6.63;91.77;101429.91;5100126;28;20024;-74
2022/03/29 03:37:10;;;;;;;50.17;28.50;;;;;;;6.62;91.90;101423.00;5108336;28;20028;-74
2022/03/29 03:39:39;;;;;;;52.10;28.88;;;;;;;6.59;92.02;101429.03;5110194;28;20022;-74
2022/03/29 03:42:06;;;;;;;52.83;29.27;;;;;;;6.52;92.30;101425.56;5095081;28;20394;-74
2022/03/29 03:44:31;;;;;;;49.80;29.55;;;;;;;6.47;92.20;101418.63;5123047;27;20015;-75
2022/03/29 03:46:57;;;;;;;52.97;29.05;;;;;;;6.47;93.09;101423.81;5111350;27;20027;-75
2022/03/29 03:49:22;;;;;;;54.60;29.48;;;;;;;6.41;92.78;101423.78;5108633;28;20485;-74
2022/03/29 03:51:48;;;;;;;54.70;28.85;;;;;;;6.35;92.89;101422.06;5106904;28;20028;-74
2022/03/29 03:54:13;;;;;;;52.13;29.27;;;;;;;6.27;93.35;101421.16;5099134;28;20368;-74
2022/03/29 03:56:38;;;;;;;54.05;29.90;;;;;;;6.25;93.42;101415.13;5109248;28;20053;-74
2022/03/29 03:59:04;;;;;;;62.95;30.20;;;;;;;6.27;93.67;101415.97;5108531;28;20028;-74
2022/03/29 04:01:29;;;;;;;63.95;31.98;;;;;;;6.27;93.74;101416.84;5100130;28;20765;-74
2022/03/29 04:03:55;;;;;;;57.58;31.45;;;;;;;6.27;93.38;101406.47;5098470;28;20032;-74
2022/03/29 04:06:20;;;;;;;59.10;31.30;;;;;;;6.25;93.59;101403.03;5096332;28;20020;-74
2022/03/29 04:08:45;;;;;;;60.17;32.17;;;;;;;6.22;93.57;101397.84;5105897;28;20108;-74
2022/03/29 04:11:10;;;;;;;61.38;31.90;;;;;;;6.19;93.72;101396.97;5114977;28;20031;-74
2022/03/29 04:13:36;;;;;;;61.80;33.25;;;;;;;6.19;93.83;101399.56;5096031;28;20063;-74
2022/03/29 04:16:02;;;;;;;55.83;33.17;;;;;;;6.13;94.42;101394.38;5095857;28;20415;-74
2022/03/29 04:18:27;;;;;;;59.95;33.53;;;;;;;6.05;94.22;101384.00;5107591;28;20034;-74
2022/03/29 04:20:53;;;;;;;60.38;33.10;;;;;;;6.02;94.49;101383.97;5115544;28;20036;-74
2022/03/29 04:23:19;;;;;;;55.92;32.58;;;;;;;6.03;94.70;101385.69;5101072;28;20396;-74
2022/03/29 04:25:44;;;;;;;62.10;32.85;;;;;;;5.97;94.95;101385.66;5104725;28;20360;-74
2022/03/29 04:28:09;;;;;;;62.65;32.92;;;;;;;5.89;95.13;101372.69;5096392;28;20448;-74
2022/03/29 04:30:34;;;;;;;58.03;32.88;;;;;;;5.85;95.61;101371.81;5107557;28;20061;-74
2022/03/29 04:33:00;;;;;;;65.32;33.72;;;;;;;5.88;95.44;101370.91;5096026;28;20032;-74
2022/03/29 04:35:25;;;;;;;62.35;34.55;;;;;;;5.83;95.96;101368.31;5110024;28;20496;-74
2022/03/29 04:37:50;;;;;;;62.03;35.25;;;;;;;5.82;95.75;101364.03;5097934;28;20038;-74
2022/03/29 04:40:15;;;;;;;66.55;35.40;;;;;;;5.81;96.01;101361.41;5112876;28;20031;-74
2022/03/29 04:42:48;;;;;;;61.88;34.92;;;;;;;5.80;96.03;101365.72;5104396;28;20032;-74
2022/03/29 04:45:15;;;;;;;65.10;35.45;;;;;;;5.80;96.77;101360.56;5106032;28;20028;-74
2022/03/29 04:47:42;;;;;;;66.70;35.83;;;;;;;5.78;96.50;101370.03;5101059;28;20036;-74
2022/03/29 04:50:08;;;;;;;64.65;35.53;;;;;;;5.77;96.53;101376.06;5095280;28;20020;-74
2022/03/29 04:52:34;;;;;;;63.30;34.67;;;;;;;5.74;96.86;101359.66;5103179;28;20041;-74
2022/03/29 04:55:00;;;;;;;71.97;35.83;;;;;;;5.78;96.60;101359.66;5111342;28;20028;-74
2022/03/29 04:57:25;;;;;;;65.00;35.63;;;;;;;5.74;96.43;101357.06;5095564;28;20438;-74
2022/03/29 04:59:50;;;;;;;62.45;36.17;;;;;;;5.76;96.58;101355.38;5093860;28;20028;-74
2022/03/29 05:02:16;;;;;;;69.65;35.90;;;;;;;5.74;96.69;101362.25;5100993;28;20027;-74
2022/03/29 05:04:41;;;;;;;66.03;35.45;;;;;;;5.70;96.93;101360.50;5099973;28;20088;-74
2022/03/29 05:07:06;;;;;;;65.80;35.85;;;;;;;5.68;96.76;101357.03;5110156;28;20383;-74
2022/03/29 05:09:32;;;;;;;65.95;36.63;;;;;;;5.69;97.35;101353.59;5094194;28;20043;-74
2022/03/29 05:11:59;;;;;;;66.68;36.70;;;;;;;5.69;97.12;101351.88;5111644;28;20051;-74
2022/03/29 05:14:24;;;;;;;64.55;36.60;;;;;;;5.68;96.92;101344.09;5113795;28;20024;-74
2022/03/29 05:16:50;;;;;;;72.50;37.05;;;;;;;5.75;96.79;101351.88;5097332;28;20012;-74
2022/03/29 05:19:15;;;;;;;65.60;36.75;;;;;;;5.73;96.72;101353.63;5113761;28;20051;-74
2022/03/29 05:21:40;;;;;;;65.95;37.13;;;;;;;5.74;97.01;101352.75;5112792;28;20024;-74
2022/03/29 05:24:06;;;;;;;69.40;37.47;;;;;;;5.69;97.23;101346.72;5097585;28;20048;-74
2022/03/29 05:26:31;;;;;;;65.95;36.67;;;;;;;5.71;97.11;101347.56;5100567;28;20043;-74
2022/03/29 05:28:56;;;;;;;70.55;36.95;;;;;;;5.70;97.15;101345.84;5111119;28;20027;-74
2022/03/29 05:31:22;;;;;;;66.32;36.35;;;;;;;5.70;96.95;101347.56;5094770;28;20106;-74
2022/03/29 05:33:47;;;;;;;67.28;37.70;;;;;;;5.72;97.24;101349.31;5095233;28;20498;-74
2022/03/29 05:36:13;;;;;;;69.30;37.53;;;;;;;5.70;97.29;101345.84;5117466;27;20039;-74
2022/03/29 05:38:38;;;;;;;70.15;37.20;;;;;;;5.69;97.24;101343.25;5113980;28;20031;-74
2022/03/29 05:41:03;;;;;;;69.13;37.17;;;;;;;5.68;97.16;101352.72;5111967;28;20020;-74
2022/03/29 05:43:29;;;;;;;70.20;38.03;;;;;;;5.68;97.56;101347.56;5104285;28;20459;-74
2022/03/29 05:48:54;;;;;;;71.97;37.10;;;;;;;5.72;97.13;101349.31;5097057;28;20063;-74
2022/03/29 05:51:20;;;;;;;72.97;38.22;;;;;;;5.74;97.09;101350.16;5112797;28;20027;-74
2022/03/29 05:53:46;;;;;;;72.97;39.17;;;;;;;5.75;97.05;101346.72;5094552;28;20062;-74
2022/03/29 05:56:11;;;;;;;76.10;40.03;;;;;;;5.80;97.32;101349.34;5097973;28;20542;-74
2022/03/29 05:58:36;;;;;;;73.75;39.50;;;;;;;5.87;96.42;101346.78;5103515;28;20510;-74
2022/03/29 06:01:02;;;;;;;68.15;37.83;;;;;;;5.87;96.52;101346.78;5108723;28;20060;-74
2022/03/29 06:03:27;;;;;;;79.68;39.40;;;;;;;5.92;96.38;101345.91;5100553;28;20024;-74
2022/03/29 06:05:53;;;;;;;79.47;40.67;;;;;;;5.93;96.94;101347.69;5106978;28;20383;-74
2022/03/29 06:08:18;;;;;;;74.55;40.10;;;;;;;5.93;97.20;101351.16;5111369;28;20054;-74
2022/03/29 06:10:43;;;;;;;80.13;42.20;;;;;;;5.94;97.21;101344.25;5107611;28;20155;-74
2022/03/29 06:13:10;;;;;;;79.18;40.55;;;;;;;6.03;97.13;101344.28;5095441;28;20540;-74
2022/03/29 06:15:36;;;;;;;79.53;40.47;;;;;;;6.06;96.85;101333.94;5092305;28;20024;-74
2022/03/29 06:18:03;;;;;;;82.25;41.03;;;;;;;6.12;96.68;101333.97;5095523;28;20031;-74
2022/03/29 06:20:28;;;;;;;78.10;40.10;;;;;;;6.25;95.88;101343.50;5106863;27;20023;-74
2022/03/29 06:22:54;;;;;;;80.35;40.53;;;;;;;6.21;95.50;101335.69;5114491;27;20043;-74
2022/03/29 06:25:19;;;;;;;84.50;41.55;;;;;;;6.25;95.89;101340.91;5121297;27;20102;-74
2022/03/29 06:27:44;;;;;;;81.05;41.38;;;;;;;6.33;95.89;101334.00;5133720;27;20106;-74
2022/03/29 06:30:10;;;;;;;80.10;40.90;;;;;;;6.39;95.84;101343.50;5112541;27;20027;-73
2022/03/29 06:32:50;;;;;;;83.22;40.88;;;;;;;6.39;95.84;101337.47;5126086;27;20031;-74
2022/03/29 06:35:23;;;;;;;82.05;40.65;;;;;;;6.42;95.43;101337.47;5101468;28;20028;-74
2022/03/29 06:37:51;;;;;;;89.25;43.00;;;;;;;6.34;95.89;101332.25;5092083;28;20020;-74
2022/03/29 06:40:17;;;;;;;83.88;41.08;;;;;;;6.36;95.97;101338.31;5092488;28;20024;-74
2022/03/29 06:42:42;;;;;;;83.72;42.60;;;;;;;6.38;95.93;101338.34;5093357;28;20111;-74
2022/03/29 06:45:09;;;;;;;84.15;42.40;;;;;;;6.41;95.80;101339.22;5110311;27;20026;-74
2022/03/29 06:47:35;;;;;;;88.45;42.38;;;;;;;6.41;95.98;101335.72;5115766;27;20061;-74
2022/03/29 06:50:01;;;;;;;89.78;42.15;;;;;;;6.46;96.02;101345.25;5108754;28;20105;-74
2022/03/29 06:52:29;;;;;;;83.63;41.50;;;;;;;6.47;95.83;101343.50;5111787;28;20156;-75
2022/03/29 06:54:54;;;;;;;86.15;41.78;;;;;;;6.46;95.99;101340.06;5115706;27;20166;-74
2022/03/29 06:57:20;;;;;;;89.63;43.60;;;;;;;6.53;95.93;101330.56;5121459;27;20470;-74
2022/03/29 06:59:45;;;;;;;90.25;43.10;;;;;;;6.54;95.51;101328.00;5115101;27;20028;-74
2022/03/29 07:02:11;;;;;;;89.45;41.60;;;;;;;6.57;95.18;101327.09;5095822;28;20506;-74
2022/03/29 07:04:37;;;;;;;86.30;41.33;;;;;;;6.64;94.74;101323.69;5113351;27;20033;-74
2022/03/29 07:07:03;;;;;;;88.82;41.22;;;;;;;6.69;94.82;101328.84;5116553;27;20106;-74
2022/03/29 07:12:13;;;;;;;;;;;;;;;6.84;93.85;101328.00;5091552;28;20051;-74
2022/03/29 07:14:38;;;;;;;91.00;41.95;;;;;;;6.83;93.93;101323.66;5096918;27;19916;-74
2022/03/29 07:17:08;;;;;;;92.15;41.25;;;;;;;6.83;94.09;101319.34;5111515;28;20467;-74
2022/03/29 07:19:33;;;;;;;91.75;41.42;;;;;;;6.83;94.23;101327.13;5128415;27;20064;-74
2022/03/29 07:21:58;;;;;;;92.97;43.53;;;;;;;6.85;93.97;101321.94;5132520;27;20055;-74
2022/03/29 07:24:24;;;;;;;93.07;45.35;;;;;;;6.86;94.47;101327.13;5132416;27;20030;-74
2022/03/29 07:26:49;;;;;;;99.28;44.90;;;;;;;6.95;94.60;101328.84;5131910;27;20047;-74
2022/03/29 07:29:14;;;;;;;90.22;42.65;;;;;;;7.03;94.23;101340.09;5132515;27;20032;-74
2022/03/29 07:31:40;;;;;;;93.18;42.08;;;;;;;7.04;93.60;101341.81;5132568;27;20387;-74
2022/03/29 07:34:05;;;;;;;94.35;41.38;;;;;;;7.07;93.81;101334.03;5131845;27;20035;-74
2022/03/29 07:36:30;;;;;;;95.68;42.95;;;;;;;7.13;93.60;101334.03;5132399;27;20447;-74
2022/03/29 07:38:56;;;;;;;94.22;43.22;;;;;;;7.13;93.04;101339.22;5132240;27;20478;-74
2022/03/29 07:41:21;;;;;;;93.68;42.33;;;;;;;7.07;93.26;101339.22;5131831;27;20034;-74
2022/03/29 07:43:47;;;;;;;91.75;41.05;;;;;;;7.08;93.00;101345.25;5132541;27;20042;-74
2022/03/29 07:46:13;;;;;;;101.05;42.65;;;;;;;7.07;93.47;101344.41;5132410;27;20547;-74
2022/03/29 07:48:38;;;;;;;95.30;42.42;;;;;;;7.12;92.96;101347.84;5131313;27;20043;-74
2022/03/29 07:51:05;;;;;;;92.22;42.38;;;;;;;7.12;92.53;101358.22;5132622;27;20076;-74
2022/03/29 07:53:31;;;;;;;97.43;43.90;;;;;;;7.15;93.26;101360.81;5131972;27;20024;-74
2022/03/29 07:55:56;;;;;;;98.00;42.10;;;;;;;7.20;93.14;101366.88;5131662;27;20020;-74
2022/03/29 07:58:21;;;;;;;93.68;43.38;;;;;;;7.21;92.82;101363.38;5132352;27;20034;-74
2022/03/29 08:00:51;;;;;;;96.60;43.08;;;;;;;7.23;92.71;101355.63;5132351;28;20015;-74
2022/03/29 08:03:18;;;;;;;87.32;42.28;;;;;;;7.28;93.60;101359.06;5131458;27;20539;-74
2022/03/29 08:05:45;;;;;;;100.50;43.63;;;;;;;7.22;93.05;101359.91;5132004;27;20034;-74
2022/03/29 08:08:13;;;;;;;96.18;43.72;;;;;;;7.23;92.92;101353.88;5131363;27;20027;-74
2022/03/29 08:10:39;;;;;;;95.70;43.35;;;;;;;7.27;93.48;101353.00;5132013;27;20359;-74
2022/03/29 08:13:07;;;;;;;93.43;42.17;;;;;;;7.19;93.11;101349.59;5132321;27;20023;-74
2022/03/29 08:15:33;;;;;;;93.15;43.15;;;;;;;7.20;93.44;101347.84;5131134;27;20074;-74
2022/03/29 08:17:59;;;;;;;95.05;43.17;;;;;;;7.22;93.58;101341.78;5132181;27;20031;-74
2022/03/29 08:20:25;;;;;;;93.88;41.60;;;;;;;7.25;93.74;101336.56;5131839;27;20027;-74
2022/03/29 08:22:52;;;;;;;96.63;43.35;;;;;;;7.30;93.36;101338.31;5131522;27;20034;-74
2022/03/29 08:25:18;;;;;;;91.68;40.35;;;;;;;7.39;92.68;101338.28;5132121;27;20023;-74
2022/03/29 08:27:45;;;;;;;97.03;41.83;;;;;;;7.42;92.13;101340.88;5132065;27;20439;-74
2022/03/29 08:30:12;;;;;;;93.95;41.42;;;;;;;7.47;92.15;101344.31;5131349;27;20020;-74
2022/03/29 08:32:37;;;;;;;96.85;42.42;;;;;;;7.47;92.52;101345.19;5131779;27;20099;-74
2022/03/29 08:35:04;;;;;;;93.88;41.03;;;;;;;7.53;92.66;101343.44;5132251;27;20106;-74
2022/03/29 08:37:30;;;;;;;95.20;41.85;;;;;;;7.54;92.37;101332.19;5130948;27;20027;-74
2022/03/29 08:39:55;;;;;;;93.07;41.72;;;;;;;7.60;91.89;101334.78;5132135;27;20386;-74
2022/03/29 08:42:23;;;;;;;95.18;41.88;;;;;;;7.70;92.26;101336.47;5131960;27;20378;-74
2022/03/29 08:44:48;;;;;;;95.38;43.38;;;;;;;7.78;91.57;101339.88;5131177;27;20023;-74
2022/03/29 08:47:15;;;;;;;89.85;41.70;;;;;;;7.83;91.31;101339.88;5134946;27;20082;-74
2022/03/29 08:49:43;;;;;;;97.40;41.97;;;;;;;7.91;90.49;101343.28;5135456;27;20027;-74
2022/03/29 08:52:10;;;;;;;95.22;43.40;;;;;;;7.88;90.48;101343.31;5135392;27;20039;-74
2022/03/29 08:54:35;;;;;;;93.78;42.97;;;;;;;7.88;89.64;101343.31;5135832;27;20027;-74
2022/03/29 08:57:00;;;;;;;96.53;42.65;;;;;;;7.80;89.52;101339.88;5135636;27;20068;-74
2022/03/29 08:59:29;;;;;;;91.47;41.47;;;;;;;7.83;90.92;101335.56;5134632;27;20023;-74
2022/03/29 09:01:58;;;;;;;102.55;44.85;;;;;;;7.92;90.62;101342.44;5135343;27;20391;-74
2022/03/29 09:04:25;;;;;;;90.65;42.22;;;;;;;7.98;89.64;101342.41;5134381;27;20114;-74
2022/03/29 09:06:50;;;;;;;99.45;43.55;;;;;;;8.03;89.96;101337.19;5135478;27;20031;-74
2022/03/29 09:09:35;;;;;;;100.80;43.57;;;;;;;8.07;89.65;101342.34;5135346;27;20080;-74
2022/03/29 09:12:22;;;;;;;97.22;44.03;;;;;;;8.13;89.08;101344.06;5134440;27;20277;-74
2022/03/29 09:14:51;;;;;;;97.10;43.97;;;;;;;8.18;89.16;101332.78;5134983;27;20083;-74
2022/03/29 09:17:33;;;;;;;100.38;43.45;;;;;;;8.32;88.65;101330.09;5135226;27;20019;-74
2022/03/29 09:20:21;;;;;;;97.95;43.22;;;;;;;8.33;88.08;101313.63;5134443;27;20072;-74
2022/03/29 09:22:55;;;;;;;97.93;45.25;;;;;;;8.43;87.77;101325.72;5135108;27;20020;-74
2022/03/29 09:25:39;;;;;;;106.45;44.38;;;;;;;8.46;87.85;101318.78;5134776;27;20044;-74
2022/03/29 09:28:12;;;;;;;100.30;44.15;;;;;;;8.38;87.60;101321.44;5135434;27;20039;-75
2022/03/29 09:30:41;;;;;;;98.63;43.67;;;;;;;8.37;88.28;101323.16;5134741;27;20039;-74
2022/03/29 09:33:27;;;;;;;106.30;45.83;;;;;;;8.39;87.30;101328.34;5121123;27;20413;-74
2022/03/29 09:35:58;;;;;;;102.65;45.03;;;;;;;8.37;88.08;101324.84;5115265;27;20023;-71
2022/03/29 09:38:27;;;;;;;103.22;45.28;;;;;;;8.39;87.87;101323.16;5106980;27;20016;-75
2022/03/29 09:40:54;;;;;;;105.28;45.95;;;;;;;8.45;87.97;101323.13;5113299;28;20024;-74
2022/03/29 09:43:23;;;;;;;110.88;48.22;;;;;;;8.56;88.74;101312.63;5116878;27;20050;-73
2022/03/29 09:45:51;;;;;;;115.18;47.92;;;;;;;8.70;87.31;101303.00;5113860;27;20081;-73
2022/03/29 09:48:24;;;;;;;114.75;46.22;;;;;;;8.86;86.09;101303.72;5113994;27;20475;-74
2022/03/29 09:50:56;;;;;;;112.95;47.17;;;;;;;8.87;85.66;101300.25;5124080;27;20051;-74
2022/03/29 09:53:35;;;;;;;111.07;46.25;;;;;;;8.93;85.88;101299.31;5107625;27;20489;-74
2022/03/29 09:56:00;;;;;;;118.22;48.50;;;;;;;8.96;85.47;101296.69;5093451;28;20032;-74
2022/03/29 09:58:26;;;;;;;117.07;47.67;;;;;;;8.96;84.87;101297.59;5094405;28;20024;-73
2022/03/29 10:00:51;;;;;;;117.13;48.08;;;;;;;8.94;85.28;101288.91;5093348;28;20074;-74
2022/03/29 10:03:18;;;;;;;117.82;48.42;;;;;;;8.93;84.92;101288.91;5111351;28;20384;-74
2022/03/29 10:05:48;;;;;;;122.90;50.90;;;;;;;8.94;85.39;101291.50;5113494;28;20031;-74
2022/03/29 10:11:00;;;;;;;119.63;49.28;;;;;;;9.19;84.23;101275.66;5093093;28;20559;-74
2022/03/29 10:13:26;;;;;;;116.13;48.72;;;;;;;9.26;83.43;101274.72;5097806;27;20035;-74
2022/03/29 10:15:53;;;;;;;109.72;46.97;;;;;;;9.30;82.85;101274.66;5092970;28;20548;-74
2022/03/29 10:18:19;;;;;;;110.43;48.72;;;;;;;9.32;83.11;101274.66;5093867;28;20016;-74
2022/03/29 10:20:46;;;;;;;114.75;48.25;;;;;;;9.33;83.29;101273.78;5105268;28;20248;-74
2022/03/29 10:23:14;;;;;;;103.15;46.50;;;;;;;9.28;82.67;101266.00;5095710;28;20024;-74
2022/03/29 10:25:41;;;;;;;97.40;45.03;;;;;;;9.26;83.12;101259.13;5101187;28;20031;-74
2022/03/29 10:28:07;;;;;;;88.10;43.13;;;;;;;9.27;82.88;101268.63;5097587;28;20036;-74
2022/03/29 10:30:39;;;;;;;83.53;42.83;;;;;;;9.25;83.11;101268.63;5106136;27;20031;-74
2022/03/29 10:33:24;;;;;;;82.77;41.50;;;;;;;9.37;83.77;101271.09;5093567;28;20081;-74
2022/03/29 10:35:59;;;;;;;83.30;41.72;;;;;;;9.40;83.08;101270.22;5091839;28;20031;-74
2022/03/29 10:38:42;;;;;;;81.82;41.22;;;;;;;9.36;82.24;101271.13;5111505;28;20023;-74
2022/03/29 10:41:31;;;;;;;84.22;42.55;;;;;;;9.39;83.02;101263.31;5112158;28;20431;-74
2022/03/29 10:44:04;;;;;;;76.32;37.17;;;;;;;9.50;82.21;101255.34;5111914;28;20193;-74
2022/03/29 10:46:45;;;;;;;74.55;38.55;;;;;;;9.65;81.70;101251.72;5109499;28;20039;-73
2022/03/29 10:49:23;;;;;;;76.57;37.70;;;;;;;9.75;81.08;101246.34;5109675;27;20075;-74
2022/03/29 10:51:49;;;;;;;73.57;36.72;;;;;;;9.90;80.44;101241.81;5122223;27;20036;-74
2022/03/29 10:54:31;;;;;;;75.50;39.35;;;;;;;10.12;80.45;101245.81;5119552;27;20036;-74
2022/03/29 10:57:06;;;;;;;73.95;34.58;;;;;;;10.24;78.43;101239.56;5109452;27;20035;-74
2022/03/29 10:59:37;;;;;;;74.57;37.10;;;;;;;10.31;79.04;101242.06;5112656;28;20055;-74
2022/03/29 11:02:14;;;;;;;67.65;37.03;;;;;;;10.47;79.11;101237.47;5113025;27;20020;-74
2022/03/29 11:05:00;;;;;;;68.60;36.05;;;;;;;10.45;78.13;101235.78;5111639;28;20050;-74
2022/03/29 11:07:26;;;;;;;67.47;34.55;;;;;;;10.51;77.14;101231.31;5098190;27;20036;-74
2022/03/29 11:10:09;;;;;;;65.15;34.67;;;;;;;10.67;77.39;101215.41;5111293;28;20032;-74
2022/03/29 11:12:35;;;;;;;64.28;35.60;;;;;;;10.68;77.25;101210.16;5115054;27;20035;-74
2022/03/29 11:15:01;;;;;;;63.70;35.35;;;;;;;10.90;76.21;101215.84;5115355;27;20035;-74
2022/03/29 11:17:29;;;;;;;65.32;35.63;;;;;;;10.93;76.67;101221.00;5107188;28;20436;-74
2022/03/29 11:19:56;;;;;;;64.15;35.15;;;;;;;10.76;75.78;101215.25;5111364;28;20024;-74
2022/03/29 11:22:21;;;;;;;59.65;34.47;;;;;;;10.74;75.86;101214.41;5099075;28;20024;-74
2022/03/29 11:24:48;;;;;;;59.50;33.17;;;;;;;10.97;75.95;101217.44;5113785;27;20035;-74
2022/03/29 11:27:22;;;;;;;60.85;33.03;;;;;;;11.34;74.13;101216.72;5105036;28;20281;-74
2022/03/29 11:29:47;;;;;;;61.55;33.35;;;;;;;11.68;73.67;101202.94;5101911;27;20478;-74